Time;durP1;ratioP1;P1;durP2;ratioP2;P2;SDS_P1;SDS_P2;PMS_P1;PMS_P2;Temp;Humidity;BMP_temperature;BMP_pressure;BME280_temperature;BME280_humidity;BME280_pressure;Samples;Min_cycle;Max_cycle;Signal;HPM_P1;HPM_P2
2022/04/13 00:01:40;;;;;;;13.95;5.90;;;;;;;13.31;68.94;101080.13;5110375;28;20439;-76
2022/04/13 00:04:05;;;;;;;14.10;5.47;;;;;;;13.25;69.75;101072.44;5113622;28;20020;-76
2022/04/13 00:06:31;;;;;;;17.23;5.90;;;;;;;13.21;68.57;101070.81;5113088;28;20027;-76
2022/04/13 00:08:56;;;;;;;14.95;5.45;;;;;;;13.14;68.70;101061.41;5110347;28;20035;-75
2022/04/13 00:11:22;;;;;;;11.30;5.95;;;;;;;13.08;68.54;101074.72;5096900;28;20035;-75
2022/04/13 00:13:47;;;;;;;11.27;5.75;;;;;;;13.07;68.47;101078.19;5110614;28;20023;-75
2022/04/13 00:16:13;;;;;;;8.70;5.22;;;;;;;13.03;69.05;101077.44;5107771;28;20031;-75
2022/04/13 00:18:39;;;;;;;15.75;6.15;;;;;;;12.99;69.27;101080.22;5099694;28;20042;-75
2022/04/13 00:21:04;;;;;;;16.60;5.32;;;;;;;12.99;70.47;101086.28;5114245;28;20407;-75
2022/04/13 00:23:30;;;;;;;10.55;5.25;;;;;;;12.96;70.54;101083.75;5111741;28;20162;-75
2022/04/13 00:25:58;;;;;;;11.00;5.45;;;;;;;12.86;70.01;101082.31;5110063;28;20043;-76
2022/04/13 00:28:23;;;;;;;11.18;5.10;;;;;;;12.80;71.06;101080.72;5094187;28;20036;-75
2022/04/13 00:30:48;;;;;;;11.93;5.35;;;;;;;12.80;71.41;101088.59;5103853;28;20475;-75
2022/04/13 00:33:14;;;;;;;12.55;5.78;;;;;;;12.68;70.63;101078.47;5098764;28;20062;-75
2022/04/13 00:35:39;;;;;;;16.42;5.28;;;;;;;12.67;70.77;101095.06;5107151;28;20075;-75
2022/04/13 00:38:05;;;;;;;15.48;6.10;;;;;;;12.64;72.17;101095.16;5111564;28;20030;-75
2022/04/13 00:40:30;;;;;;;15.35;5.55;;;;;;;12.58;71.77;101097.94;5113248;28;20039;-75
2022/04/13 00:42:56;;;;;;;11.65;5.55;;;;;;;12.57;71.94;101096.22;5105766;28;20034;-75
2022/04/13 00:45:21;;;;;;;12.70;5.00;;;;;;;12.55;71.77;101104.09;5112831;28;20025;-75
2022/04/13 00:47:47;;;;;;;12.10;5.32;;;;;;;12.52;72.61;101111.16;5109167;28;20111;-75
2022/04/13 00:50:13;;;;;;;13.00;5.03;;;;;;;12.45;72.55;101107.00;5097700;28;20372;-75
2022/04/13 00:52:44;;;;;;;12.73;5.15;;;;;;;12.39;72.82;101111.53;5110236;28;20027;-75
2022/04/13 00:55:11;;;;;;;12.77;5.30;;;;;;;12.41;74.33;101114.09;5110703;28;20034;-75
2022/04/13 00:57:37;;;;;;;8.25;4.82;;;;;;;12.32;73.86;101112.56;5110797;28;20317;-74
2022/04/13 01:00:05;;;;;;;11.20;4.82;;;;;;;12.33;74.11;101119.53;5102401;28;20023;-75
2022/04/13 01:02:31;;;;;;;11.25;5.28;;;;;;;12.37;74.88;101130.75;5109844;28;20043;-75
2022/04/13 01:05:02;;;;;;;9.75;4.75;;;;;;;12.35;74.22;101127.31;5097156;28;20024;-75
2022/04/13 01:07:27;;;;;;;11.23;5.80;;;;;;;12.36;75.16;101132.53;5112139;28;20114;-75
2022/04/13 01:09:53;;;;;;;13.30;5.40;;;;;;;12.35;75.17;101128.16;5108935;28;20459;-75
2022/04/13 01:12:19;;;;;;;12.43;4.70;;;;;;;12.40;74.33;101139.38;5106083;28;20026;-75
2022/04/13 01:14:44;;;;;;;9.75;4.95;;;;;;;12.37;74.05;101144.69;5096856;28;20036;-75
2022/04/13 01:17:09;;;;;;;15.07;5.50;;;;;;;12.36;72.73;101142.97;5092334;28;20494;-75
2022/04/13 01:19:35;;;;;;;9.85;4.53;;;;;;;12.36;74.11;101140.38;5109145;28;20066;-75
2022/04/13 01:22:14;;;;;;;12.70;4.95;;;;;;;12.45;72.94;101154.06;5106882;28;20067;-75
2022/04/13 01:24:40;;;;;;;9.32;4.70;;;;;;;12.51;75.03;101156.53;5102598;28;20035;-75
2022/04/13 01:27:05;;;;;;;8.95;4.90;;;;;;;12.47;74.98;101155.75;5111908;28;20023;-75
2022/04/13 01:29:30;;;;;;;8.75;4.97;;;;;;;12.51;73.35;101161.75;5094437;28;20118;-75
2022/04/13 01:31:56;;;;;;;10.15;5.25;;;;;;;12.48;74.52;101151.38;5092546;28;20028;-75
2022/04/13 01:34:22;;;;;;;15.18;5.50;;;;;;;12.48;74.85;101167.94;5095986;28;20035;-75
2022/04/13 01:36:47;;;;;;;16.02;5.53;;;;;;;12.48;75.60;101160.09;5092053;28;20164;-75
2022/04/13 01:39:12;;;;;;;10.45;5.57;;;;;;;12.48;75.76;101167.94;5107043;28;20047;-75
2022/04/13 01:41:37;;;;;;;12.70;5.80;;;;;;;12.47;75.45;101175.81;5110675;28;20028;-75
2022/04/13 01:44:03;;;;;;;12.40;5.30;;;;;;;12.45;75.35;101182.84;5109754;28;20059;-75
2022/04/13 01:46:28;;;;;;;12.95;5.88;;;;;;;12.44;75.90;101191.59;5098532;28;20069;-75
2022/04/13 01:48:54;;;;;;;10.20;5.63;;;;;;;12.44;75.79;101188.97;5095317;28;20059;-75
2022/04/13 01:51:20;;;;;;;11.48;6.00;;;;;;;12.44;76.15;101186.38;5102571;28;20126;-75
2022/04/13 01:53:50;;;;;;;13.27;6.45;;;;;;;12.45;76.67;101191.53;5096846;28;20386;-75
2022/04/13 01:56:15;;;;;;;14.27;6.60;;;;;;;12.47;76.94;101188.91;5110029;28;20030;-75
2022/04/13 01:58:40;;;;;;;12.95;6.03;;;;;;;12.48;77.10;101183.63;5109549;28;20098;-75
2022/04/13 02:01:06;;;;;;;13.23;5.80;;;;;;;12.49;77.60;101189.69;5107283;28;20379;-75
2022/04/13 02:03:32;;;;;;;15.68;7.47;;;;;;;12.44;76.28;101182.00;5110656;28;20020;-75
2022/04/13 02:05:57;;;;;;;13.95;6.68;;;;;;;12.47;77.01;101199.38;5100284;28;20081;-75
2022/04/13 02:08:23;;;;;;;13.80;6.50;;;;;;;12.43;77.18;101180.28;5103785;28;20118;-75
2022/04/13 02:10:49;;;;;;;13.25;6.80;;;;;;;12.46;76.77;101197.63;5108230;28;20089;-75
2022/04/13 02:13:14;;;;;;;17.80;6.97;;;;;;;12.44;77.26;101196.81;5109300;28;20024;-75
2022/04/13 02:15:40;;;;;;;12.88;7.10;;;;;;;12.44;76.76;101204.66;5111227;28;20508;-75
2022/04/13 02:18:06;;;;;;;13.45;6.60;;;;;;;12.43;78.62;101202.97;5105060;28;20036;-75
2022/04/13 02:20:32;;;;;;;14.57;6.72;;;;;;;12.41;78.41;101209.06;5102511;28;20035;-75
2022/04/13 02:22:57;;;;;;;15.40;7.15;;;;;;;12.37;77.28;101212.66;5107830;28;20041;-75
2022/04/13 02:25:22;;;;;;;14.30;6.50;;;;;;;12.30;78.87;101205.03;5091690;28;20106;-75
2022/04/13 02:27:48;;;;;;;13.90;6.80;;;;;;;12.26;78.85;101214.69;5104818;28;20036;-75
2022/04/13 02:30:13;;;;;;;13.20;7.55;;;;;;;12.23;78.84;101214.78;5108275;28;20496;-75
2022/04/13 02:32:40;;;;;;;17.15;7.13;;;;;;;12.17;79.16;101214.91;5110681;28;20020;-75
2022/04/13 02:35:06;;;;;;;15.35;7.00;;;;;;;12.13;79.67;101208.03;5111367;28;20482;-75
2022/04/13 02:37:31;;;;;;;13.20;6.78;;;;;;;12.04;79.73;101209.13;5108825;28;20024;-75
2022/04/13 02:39:56;;;;;;;15.93;7.25;;;;;;;12.02;80.22;101217.88;5105279;28;20674;-75
2022/04/13 02:42:22;;;;;;;13.95;7.03;;;;;;;11.90;80.84;101216.41;5091803;28;20418;-75
2022/04/13 02:44:47;;;;;;;15.55;7.63;;;;;;;11.87;80.60;101219.97;5094193;28;20047;-75
2022/04/13 02:47:12;;;;;;;15.85;7.18;;;;;;;11.78;80.97;101209.69;5106040;28;20128;-75
2022/04/13 02:49:38;;;;;;;13.13;7.07;;;;;;;11.76;81.16;101223.66;5111060;28;20032;-75
2022/04/13 02:52:04;;;;;;;14.20;7.43;;;;;;;11.67;81.22;101229.94;5108731;28;20040;-75
2022/04/13 02:54:29;;;;;;;14.35;7.20;;;;;;;11.60;81.37;101230.97;5110703;28;20038;-75
2022/04/13 02:56:55;;;;;;;17.17;6.93;;;;;;;11.53;81.46;101230.25;5109563;28;20428;-75
2022/04/13 02:59:21;;;;;;;11.70;7.60;;;;;;;11.45;82.18;101238.25;5095587;28;20040;-75
2022/04/13 03:01:46;;;;;;;13.73;7.53;;;;;;;11.36;82.52;101238.44;5108970;28;20030;-75
2022/04/13 03:04:13;;;;;;;18.65;7.65;;;;;;;11.32;82.92;101234.16;5110068;28;20038;-75
2022/04/13 03:06:39;;;;;;;12.18;7.45;;;;;;;11.27;82.88;101233.38;5111791;28;20020;-75
2022/04/13 03:09:04;;;;;;;14.93;7.82;;;;;;;11.19;83.01;101235.31;5113496;28;20038;-75
2022/04/13 03:11:30;;;;;;;10.25;7.45;;;;;;;11.13;83.26;101238.03;5100363;28;20047;-75
2022/04/13 03:13:56;;;;;;;18.35;8.15;;;;;;;11.07;83.71;101240.75;5108196;28;20032;-75
2022/04/13 03:16:21;;;;;;;14.30;8.38;;;;;;;11.04;83.75;101236.44;5115218;28;20019;-75
2022/04/13 03:18:47;;;;;;;20.35;9.40;;;;;;;11.02;83.88;101238.25;5097701;28;20115;-75
2022/04/13 03:21:12;;;;;;;13.68;8.77;;;;;;;10.98;83.93;101233.94;5110940;28;20027;-75
2022/04/13 03:23:37;;;;;;;18.83;8.73;;;;;;;10.92;84.10;101229.72;5102878;28;20471;-75
2022/04/13 03:26:03;;;;;;;20.55;9.93;;;;;;;10.82;84.77;101232.53;5095156;28;20040;-75
2022/04/13 03:28:28;;;;;;;15.65;8.73;;;;;;;10.83;84.72;101235.13;5104219;28;20363;-75
2022/04/13 03:30:53;;;;;;;20.05;9.10;;;;;;;10.81;84.83;101229.06;5105698;28;20031;-75
2022/04/13 03:33:19;;;;;;;16.63;9.05;;;;;;;10.75;85.26;101231.78;5111723;28;20028;-75
2022/04/13 03:35:44;;;;;;;16.63;9.52;;;;;;;10.69;85.62;101242.31;5113081;28;20033;-75
2022/04/13 03:38:09;;;;;;;14.70;9.15;;;;;;;10.57;86.33;101238.19;5115010;28;20035;-75
2022/04/13 03:40:34;;;;;;;15.77;9.52;;;;;;;10.50;86.95;101233.97;5114435;28;20542;-74
2022/04/13 03:43:00;;;;;;;17.70;9.55;;;;;;;10.43;87.00;101232.31;5112214;28;20085;-75
2022/04/13 03:45:25;;;;;;;14.13;8.90;;;;;;;10.45;87.43;101246.19;5094322;28;20028;-75
2022/04/13 03:47:50;;;;;;;17.50;9.18;;;;;;;10.43;87.32;101245.34;5098899;28;20032;-75
2022/04/13 03:50:17;;;;;;;15.23;9.70;;;;;;;10.41;87.57;101241.94;5114515;28;20031;-75
2022/04/13 03:52:42;;;;;;;15.75;9.15;;;;;;;10.41;87.55;101250.59;5112932;28;20028;-75
2022/04/13 03:55:09;;;;;;;16.10;8.70;;;;;;;10.42;87.41;101243.66;5111962;28;20039;-75
2022/04/13 03:57:34;;;;;;;19.42;9.75;;;;;;;10.37;87.59;101248.94;5109926;28;20483;-74
2022/04/13 03:59:59;;;;;;;16.77;9.70;;;;;;;10.28;88.33;101249.09;5101785;28;20110;-75
2022/04/13 04:02:25;;;;;;;15.93;9.85;;;;;;;10.22;88.74;101260.41;5094839;28;20352;-74
2022/04/13 04:04:50;;;;;;;20.63;10.00;;;;;;;10.16;89.00;101262.25;5097344;28;20068;-74
2022/04/13 04:07:16;;;;;;;16.23;10.38;;;;;;;10.18;89.32;101265.72;5104465;28;20070;-75
2022/04/13 04:09:42;;;;;;;20.63;10.45;;;;;;;10.11;89.87;101271.91;5110634;28;20103;-75
2022/04/13 04:12:08;;;;;;;17.00;9.70;;;;;;;10.12;89.74;101271.00;5101646;28;20024;-75
2022/04/13 04:14:33;;;;;;;16.15;10.82;;;;;;;10.13;89.65;101270.13;5112125;28;20042;-75
2022/04/13 04:16:58;;;;;;;15.60;9.95;;;;;;;10.12;89.78;101274.47;5096222;27;20031;-75
2022/04/13 04:19:23;;;;;;;16.85;10.00;;;;;;;10.13;89.57;101285.75;5109823;28;20024;-75
2022/04/13 04:21:49;;;;;;;20.90;10.75;;;;;;;10.09;90.00;101282.31;5113095;28;20585;-74
2022/04/13 04:24:14;;;;;;;18.00;10.55;;;;;;;10.16;89.79;101289.16;5110020;28;20035;-75
2022/04/13 04:26:39;;;;;;;19.15;10.20;;;;;;;10.21;89.55;101286.50;5109927;28;20032;-74
2022/04/13 04:29:05;;;;;;;20.33;11.13;;;;;;;10.25;89.22;101282.97;5093732;28;20027;-75
2022/04/13 04:34:14;;;;;;;;;;;;;;;10.41;85.72;101284.50;5104412;28;20110;-74
2022/04/13 04:36:40;;;;;;;19.53;11.67;;;;;;;10.35;89.42;101289.78;5113349;28;19919;-74
2022/04/13 04:39:05;;;;;;;19.50;10.93;;;;;;;10.34;89.87;101293.28;5104422;28;20386;-75
2022/04/13 04:41:32;;;;;;;22.52;11.10;;;;;;;10.39;90.52;101298.41;5110094;28;20077;-74
2022/04/13 04:43:57;;;;;;;18.60;11.52;;;;;;;10.48;90.21;101304.34;5111796;28;20023;-74
2022/04/13 04:46:22;;;;;;;18.30;11.50;;;;;;;10.49;90.44;101308.69;5110361;28;20024;-75
2022/04/13 04:48:48;;;;;;;24.83;12.18;;;;;;;10.57;90.58;101305.97;5098298;28;20047;-74
2022/04/13 04:51:13;;;;;;;23.10;12.15;;;;;;;10.61;90.44;101317.22;5092348;28;20063;-74
2022/04/13 04:53:38;;;;;;;20.67;13.15;;;;;;;10.64;90.75;101320.63;5106794;28;20035;-74
2022/04/13 04:56:04;;;;;;;18.27;12.80;;;;;;;10.65;90.60;101311.91;5107247;28;20023;-75
2022/04/13 04:58:29;;;;;;;21.60;12.13;;;;;;;10.72;90.58;101325.69;5100047;28;20071;-74
2022/04/13 05:00:55;;;;;;;20.75;12.35;;;;;;;10.68;91.01;101316.22;5099154;28;20031;-75
2022/04/13 05:03:20;;;;;;;18.00;12.23;;;;;;;10.67;90.42;101324.94;5109501;28;20040;-75
2022/04/13 05:05:46;;;;;;;21.00;12.05;;;;;;;10.70;90.53;101327.50;5108926;28;20027;-75
2022/04/13 05:08:11;;;;;;;21.08;13.27;;;;;;;10.70;90.67;101330.09;5111827;28;20046;-75
2022/04/13 05:10:37;;;;;;;21.65;13.82;;;;;;;10.71;90.79;101329.19;5109557;28;20028;-75
2022/04/13 05:13:03;;;;;;;23.27;13.88;;;;;;;10.76;90.73;101337.84;5111182;28;20042;-74
2022/04/13 05:15:28;;;;;;;20.60;12.45;;;;;;;10.76;90.72;101336.06;5108937;28;20027;-75
2022/04/13 05:17:54;;;;;;;27.70;13.13;;;;;;;10.82;90.81;101335.09;5095745;28;20033;-75
2022/04/13 05:20:19;;;;;;;21.33;13.88;;;;;;;10.81;90.80;101329.91;5092239;28;20566;-75
2022/04/13 05:22:44;;;;;;;23.67;13.25;;;;;;;10.95;90.36;101346.19;5097128;28;20035;-75
2022/04/13 05:25:12;;;;;;;22.88;13.55;;;;;;;11.05;89.46;101345.13;5108188;28;20037;-75
2022/04/13 05:27:38;;;;;;;24.00;13.73;;;;;;;11.15;89.44;101359.78;5111747;28;20039;-75
2022/04/13 05:30:05;;;;;;;18.13;13.13;;;;;;;11.19;89.68;101351.00;5111296;28;20063;-74
2022/04/13 05:32:31;;;;;;;21.88;12.23;;;;;;;11.34;89.22;101362.88;5111220;28;20547;-75
2022/04/13 05:34:59;;;;;;;19.27;13.73;;;;;;;11.40;88.69;101368.00;5110431;28;20123;-75
2022/04/13 05:37:24;;;;;;;21.02;13.25;;;;;;;11.39;89.11;101355.84;5110404;28;20039;-75
2022/04/13 05:39:49;;;;;;;27.17;14.40;;;;;;;11.54;89.06;101366.88;5108782;28;20048;-75
2022/04/13 05:42:15;;;;;;;23.65;17.23;;;;;;;11.53;88.49;101358.19;5109781;28;20024;-74
2022/04/13 05:44:40;;;;;;;24.75;16.00;;;;;;;11.63;88.90;101367.56;5103545;28;20028;-75
2022/04/13 05:47:05;;;;;;;22.73;17.27;;;;;;;11.76;88.01;101365.56;5107759;28;20038;-75
2022/04/13 05:49:31;;;;;;;25.90;18.10;;;;;;;11.88;87.51;101377.56;5091725;28;20032;-75
2022/04/13 05:51:56;;;;;;;27.55;16.15;;;;;;;12.04;87.63;101378.13;5091851;28;20044;-75
2022/04/13 05:54:21;;;;;;;21.50;15.70;;;;;;;12.22;87.25;101384.69;5103232;28;20020;-75
2022/04/13 05:56:46;;;;;;;22.15;17.25;;;;;;;12.36;85.95;101380.00;5096865;28;20039;-74
2022/04/13 05:59:12;;;;;;;28.75;18.10;;;;;;;12.48;85.87;101381.50;5111459;28;20122;-75
2022/04/13 06:01:37;;;;;;;24.33;17.45;;;;;;;12.55;86.02;101375.22;5100205;28;20028;-75
2022/04/13 06:04:02;;;;;;;30.85;19.70;;;;;;;12.65;84.27;101384.59;5111546;28;20036;-75
2022/04/13 06:06:30;;;;;;;26.52;18.48;;;;;;;12.71;84.40;101388.81;5108065;28;20034;-75
2022/04/13 06:08:55;;;;;;;27.05;19.00;;;;;;;12.75;84.36;101388.72;5111161;28;20093;-75
2022/04/13 06:11:20;;;;;;;26.80;18.65;;;;;;;12.76;85.10;101386.97;5111926;28;20474;-75
2022/04/13 06:13:46;;;;;;;28.65;18.80;;;;;;;12.78;84.16;101395.63;5100812;28;20414;-75
2022/04/13 06:16:11;;;;;;;29.70;19.35;;;;;;;12.74;84.44;101409.69;5103090;28;20035;-75
2022/04/13 06:18:36;;;;;;;32.72;18.73;;;;;;;12.72;83.85;101409.72;5102001;28;20081;-75
2022/04/13 06:21:01;;;;;;;30.67;18.42;;;;;;;12.74;84.30;101407.06;5092985;28;20039;-74
2022/04/13 06:23:27;;;;;;;29.27;19.27;;;;;;;12.75;83.63;101412.28;5096438;28;20073;-74
2022/04/13 06:25:52;;;;;;;28.48;19.05;;;;;;;12.77;84.09;101418.31;5099026;28;20028;-74
2022/04/13 06:28:17;;;;;;;28.38;18.05;;;;;;;12.79;83.88;101397.38;5098689;28;20028;-75
2022/04/13 06:30:43;;;;;;;27.15;18.42;;;;;;;12.81;83.24;101406.88;5090929;28;20027;-75
2022/04/13 06:33:09;;;;;;;31.85;18.88;;;;;;;12.75;83.57;101407.03;5091679;28;20161;-75
2022/04/13 06:35:34;;;;;;;28.58;18.25;;;;;;;12.74;83.34;101407.91;5091241;28;20519;-75
2022/04/13 06:37:59;;;;;;;31.38;18.70;;;;;;;12.70;83.56;101406.28;5106028;28;20020;-75
2022/04/13 06:40:24;;;;;;;23.92;18.08;;;;;;;12.62;85.08;101410.81;5103849;28;20026;-75
2022/04/13 06:42:50;;;;;;;37.58;18.17;;;;;;;12.68;83.83;101421.13;5095756;28;20032;-75
2022/04/13 06:45:15;;;;;;;30.60;18.30;;;;;;;12.64;83.96;101430.81;5094485;28;20547;-75
2022/04/13 06:47:41;;;;;;;30.55;18.23;;;;;;;12.69;85.01;101432.47;5112096;27;20036;-74
2022/04/13 06:50:08;;;;;;;25.58;18.05;;;;;;;12.76;84.62;101431.44;5132343;27;20062;-75
2022/04/13 06:52:34;;;;;;;29.90;18.90;;;;;;;12.86;85.14;101443.41;5116533;27;20059;-75
2022/04/13 06:54:59;;;;;;;27.98;18.48;;;;;;;13.00;84.35;101446.56;5110062;27;20024;-75
2022/04/13 06:57:25;;;;;;;28.65;20.10;;;;;;;13.14;83.76;101451.44;5107199;28;20024;-75
2022/04/13 06:59:50;;;;;;;37.22;19.45;;;;;;;13.32;83.65;101450.19;5095196;28;20024;-75
2022/04/13 07:02:15;;;;;;;30.45;19.60;;;;;;;13.45;83.10;101455.97;5095301;28;20035;-75
2022/04/13 07:04:41;;;;;;;32.08;20.08;;;;;;;13.54;82.30;101456.59;5094345;28;20039;-75
2022/04/13 07:07:06;;;;;;;31.40;20.08;;;;;;;13.60;82.15;101455.56;5095228;28;20028;-75
2022/04/13 07:09:32;;;;;;;29.55;18.52;;;;;;;13.67;80.90;101459.75;5094985;28;20035;-75
2022/04/13 07:11:57;;;;;;;34.25;20.50;;;;;;;13.63;80.68;101460.72;5094786;28;20020;-75
2022/04/13 07:14:22;;;;;;;32.50;19.77;;;;;;;13.58;80.83;101463.47;5094604;28;20410;-75
2022/04/13 07:16:48;;;;;;;30.92;19.55;;;;;;;13.45;80.71;101471.69;5095181;28;20069;-75
2022/04/13 07:19:13;;;;;;;29.38;19.40;;;;;;;13.42;82.55;101488.34;5094362;28;20039;-75
2022/04/13 07:21:38;;;;;;;32.75;18.50;;;;;;;13.41;82.14;101488.38;5094554;28;20027;-75
2022/04/13 07:24:04;;;;;;;33.45;19.20;;;;;;;13.39;82.59;101490.16;5095129;28;20023;-75
2022/04/13 07:26:30;;;;;;;28.42;18.80;;;;;;;13.43;82.00;101492.66;5094195;28;20068;-75
2022/04/13 07:28:55;;;;;;;40.22;21.50;;;;;;;13.47;83.00;101490.81;5094628;28;20063;-75
2022/04/13 07:31:20;;;;;;;27.92;18.90;;;;;;;13.63;82.06;101491.31;5094661;28;20365;-75
2022/04/13 07:33:45;;;;;;;26.58;18.70;;;;;;;13.87;81.38;101495.91;5094118;28;20063;-75
2022/04/13 07:36:12;;;;;;;24.45;19.02;;;;;;;14.03;81.27;101499.00;5094546;28;20035;-75
2022/04/13 07:38:37;;;;;;;32.15;18.38;;;;;;;14.07;80.88;101498.00;5094470;28;20028;-75
2022/04/13 07:41:04;;;;;;;29.85;18.25;;;;;;;13.99;80.32;101499.94;5094625;28;20024;-75
2022/04/13 07:43:29;;;;;;;34.58;18.95;;;;;;;13.95;79.79;101500.94;5094416;28;20031;-75
2022/04/13 07:45:54;;;;;;;26.38;18.88;;;;;;;13.90;80.17;101503.69;5094583;28;20020;-75
2022/04/13 07:48:20;;;;;;;28.52;17.50;;;;;;;13.95;81.38;101499.19;5093776;28;20100;-75
2022/04/13 07:50:47;;;;;;;28.75;17.95;;;;;;;14.01;81.02;101492.91;5093989;28;20036;-75
2022/04/13 07:53:12;;;;;;;27.77;16.83;;;;;;;14.20;80.31;101496.75;5093923;28;20026;-75
2022/04/13 07:55:37;;;;;;;33.22;18.88;;;;;;;14.36;81.25;101494.56;5093675;28;20032;-75
2022/04/13 07:58:02;;;;;;;31.15;17.77;;;;;;;14.55;80.09;101505.41;5094657;28;20047;-75
2022/04/13 08:00:28;;;;;;;26.08;17.48;;;;;;;14.79;79.26;101505.59;5093770;28;20034;-75
2022/04/13 08:02:53;;;;;;;29.02;18.65;;;;;;;14.99;78.86;101516.31;5093891;28;20059;-75
2022/04/13 08:05:18;;;;;;;28.92;18.30;;;;;;;15.04;76.26;101518.78;5093997;28;20387;-75
2022/04/13 08:07:44;;;;;;;32.97;18.50;;;;;;;15.08;77.00;101521.28;5093099;28;20036;-75
2022/04/13 08:10:10;;;;;;;31.58;19.65;;;;;;;15.05;76.83;101526.63;5094280;28;20039;-75
2022/04/13 08:12:35;;;;;;;25.27;17.95;;;;;;;15.06;76.58;101528.34;5094211;28;20069;-75
2022/04/13 08:15:03;;;;;;;24.38;16.52;;;;;;;15.05;76.02;101531.03;5093351;28;20031;-75
2022/04/13 08:17:29;;;;;;;24.30;16.38;;;;;;;15.01;76.52;101527.66;5093403;28;20051;-75
2022/04/13 08:19:54;;;;;;;22.40;14.77;;;;;;;15.05;76.67;101526.63;5093812;28;20104;-75
2022/04/13 08:22:27;;;;;;;23.50;14.02;;;;;;;15.00;76.17;101528.53;5093072;28;20036;-75
2022/04/13 08:24:52;;;;;;;20.23;15.70;;;;;;;14.95;75.87;101533.09;5093448;28;20557;-75
2022/04/13 08:27:18;;;;;;;21.48;16.55;;;;;;;14.95;76.92;101533.94;5093551;28;20020;-75
2022/04/13 08:29:46;;;;;;;24.88;13.98;;;;;;;15.04;75.85;101537.16;5093036;28;20065;-75
2022/04/13 08:32:12;;;;;;;27.92;14.98;;;;;;;15.16;75.94;101542.91;5093441;28;20106;-75
2022/04/13 08:34:37;;;;;;;23.02;15.10;;;;;;;15.31;75.58;101538.09;5093470;28;20099;-76
2022/04/13 08:37:03;;;;;;;21.42;14.35;;;;;;;15.40;74.85;101543.91;5093191;28;20063;-75
2022/04/13 08:39:28;;;;;;;25.20;14.95;;;;;;;15.45;77.22;101535.88;5093269;28;20027;-75
2022/04/13 08:41:59;;;;;;;24.83;14.63;;;;;;;15.48;74.75;101540.16;5093244;28;20361;-75
2022/04/13 08:44:50;;;;;;;25.83;14.57;;;;;;;15.48;75.02;101543.66;5092824;28;20111;-75
2022/04/13 08:47:20;;;;;;;27.38;14.43;;;;;;;15.67;75.36;101552.69;5093096;28;20024;-76
2022/04/13 08:49:50;;;;;;;20.95;13.82;;;;;;;15.88;75.35;101547.59;5092877;28;20434;-76
2022/04/13 08:52:28;;;;;;;17.92;12.23;;;;;;;16.13;72.39;101543.22;5092793;28;20111;-75
2022/04/13 08:55:01;;;;;;;18.70;11.57;;;;;;;16.35;71.62;101556.47;5093107;28;20032;-75
2022/04/13 08:57:29;;;;;;;23.02;14.60;;;;;;;16.61;71.30;101550.25;5092526;28;20186;-75
2022/04/13 09:00:06;;;;;;;19.60;12.07;;;;;;;16.82;70.62;101555.63;5092637;28;20028;-76
2022/04/13 09:02:41;;;;;;;21.75;12.55;;;;;;;17.13;69.07;101554.44;5091512;28;20498;-76
2022/04/13 09:05:10;;;;;;;21.17;13.95;;;;;;;17.46;68.44;101558.38;5092035;28;20474;-76
2022/04/13 09:07:36;;;;;;;21.50;13.65;;;;;;;17.54;67.35;101560.69;5092691;28;20028;-76
2022/04/13 09:10:03;;;;;;;21.52;13.95;;;;;;;17.53;67.17;101564.25;5092998;28;20441;-76
2022/04/13 09:12:33;;;;;;;24.13;13.93;;;;;;;17.61;65.73;101561.28;5092094;28;20130;-75
2022/04/13 09:15:01;;;;;;;26.98;14.75;;;;;;;17.68;65.57;101571.50;5092861;28;20489;-76
2022/04/13 09:17:29;;;;;;;22.95;15.10;;;;;;;17.75;65.57;101575.59;5092762;28;20051;-76
2022/04/13 09:19:56;;;;;;;23.63;14.98;;;;;;;17.80;65.98;101580.72;5091893;28;20124;-75
2022/04/13 09:22:22;;;;;;;24.00;14.18;;;;;;;17.80;65.82;101575.47;5092506;28;20024;-75
2022/04/13 09:24:49;;;;;;;22.67;15.55;;;;;;;17.66;66.78;101586.56;5092443;28;20487;-76
2022/04/13 09:27:15;;;;;;;23.10;14.63;;;;;;;17.55;67.01;101576.41;5102172;28;20028;-76
2022/04/13 09:29:41;;;;;;;21.50;14.52;;;;;;;17.54;66.79;101582.63;5108096;28;20047;-76
2022/04/13 09:32:07;;;;;;;21.63;15.32;;;;;;;17.50;66.76;101588.09;5111414;28;20028;-76
2022/04/13 09:34:32;;;;;;;26.10;15.13;;;;;;;17.44;67.70;101598.88;5111640;28;20126;-76
2022/04/13 09:36:58;;;;;;;21.77;15.48;;;;;;;17.25;66.66;101604.03;5112459;28;20065;-76
2022/04/13 09:39:23;;;;;;;21.17;15.68;;;;;;;17.03;67.43;101601.34;5111829;28;20387;-76
2022/04/13 09:41:50;;;;;;;22.40;15.38;;;;;;;16.87;68.21;101606.34;5112590;28;20482;-76
2022/04/13 09:44:18;;;;;;;23.92;16.85;;;;;;;16.79;67.73;101609.28;5113836;27;20027;-75
2022/04/13 09:46:43;;;;;;;20.50;16.42;;;;;;;16.78;69.71;101611.97;5110591;27;20023;-75
2022/04/13 09:49:14;;;;;;;26.13;17.25;;;;;;;16.77;70.66;101610.22;5110314;28;20032;-75
2022/04/13 09:51:42;;;;;;;24.35;16.88;;;;;;;16.86;68.32;101612.53;5112187;28;20051;-74
2022/04/13 09:54:10;;;;;;;25.45;17.85;;;;;;;16.83;69.27;101618.75;5110915;28;20100;-75
2022/04/13 09:56:43;;;;;;;26.63;18.25;;;;;;;16.82;68.52;101613.56;5112612;27;20057;-75
2022/04/13 09:59:09;;;;;;;30.00;19.27;;;;;;;16.59;69.70;101615.22;5110584;28;20031;-75
2022/04/13 10:01:36;;;;;;;28.60;19.65;;;;;;;16.42;70.60;101609.72;5111771;28;20062;-75
2022/04/13 10:04:05;;;;;;;25.67;18.45;;;;;;;16.38;70.33;101610.72;5106216;28;20063;-75
2022/04/13 10:06:31;;;;;;;26.67;18.55;;;;;;;16.42;69.79;101615.00;5111976;28;20469;-76
2022/04/13 10:09:14;;;;;;;28.60;19.40;;;;;;;16.28;70.37;101609.34;5111235;28;20036;-75
2022/04/13 10:11:57;;;;;;;25.88;20.13;;;;;;;16.22;70.51;101618.31;5113223;27;20035;-75
2022/04/13 10:14:22;;;;;;;28.90;20.33;;;;;;;16.13;71.50;101616.00;5105748;28;20143;-75
2022/04/13 10:16:51;;;;;;;25.70;18.65;;;;;;;16.04;71.96;101609.28;5111694;28;20126;-75
2022/04/13 10:19:20;;;;;;;26.95;18.70;;;;;;;16.00;72.00;101615.56;5112161;28;20019;-75
2022/04/13 10:21:51;;;;;;;25.35;17.77;;;;;;;15.97;72.84;101618.28;5109612;28;20027;-75
2022/04/13 10:24:33;;;;;;;24.42;17.95;;;;;;;15.96;72.06;101621.84;5109722;28;20073;-75
2022/04/13 10:27:00;;;;;;;28.80;18.95;;;;;;;15.89;72.23;101617.66;5110890;28;20032;-75
2022/04/13 10:29:26;;;;;;;25.52;18.85;;;;;;;15.80;72.69;101621.47;5111163;28;20028;-75
2022/04/13 10:32:11;;;;;;;23.77;17.98;;;;;;;15.82;72.92;101621.41;5111658;28;20016;-75
2022/04/13 10:34:42;;;;;;;26.60;18.13;;;;;;;15.78;73.50;101617.19;5111103;28;20028;-75
2022/04/13 10:37:09;;;;;;;25.13;18.52;;;;;;;15.85;74.89;101627.44;5111339;28;20027;-75
2022/04/13 10:39:35;;;;;;;23.48;19.08;;;;;;;15.77;73.87;101626.00;5110168;28;20031;-80
2022/04/13 10:42:05;;;;;;;26.80;19.90;;;;;;;15.70;74.97;101635.84;5111578;28;20536;-76
2022/04/13 10:44:36;;;;;;;27.92;20.35;;;;;;;15.67;74.92;101639.41;5108605;28;20491;-75
2022/04/13 10:47:07;;;;;;;28.38;20.98;;;;;;;15.71;75.55;101636.69;5108227;28;20379;-75
2022/04/13 10:49:55;;;;;;;28.05;21.25;;;;;;;15.85;74.78;101637.94;5110908;28;20038;-76
2022/04/13 10:52:27;;;;;;;31.00;20.67;;;;;;;15.99;76.41;101642.78;5111236;28;20059;-75
2022/04/13 10:55:01;;;;;;;33.15;23.08;;;;;;;15.92;76.75;101641.25;5091393;28;20036;-76
2022/04/13 10:57:35;;;;;;;29.45;22.77;;;;;;;15.71;77.09;101652.47;5106258;28;20063;-76
2022/04/13 11:00:06;;;;;;;31.42;22.63;;;;;;;15.53;78.97;101653.84;5111526;28;20024;-76
2022/04/13 11:02:53;;;;;;;28.80;23.00;;;;;;;15.40;76.74;101658.63;5110248;28;20034;-76
2022/04/13 11:05:20;;;;;;;32.80;22.02;;;;;;;15.30;77.70;101652.78;5115263;28;20054;-75
2022/04/13 11:07:46;;;;;;;26.45;21.60;;;;;;;15.28;78.30;101649.38;5094588;27;20032;-76
2022/04/13 11:10:19;;;;;;;30.60;23.02;;;;;;;15.37;78.73;101656.13;5122448;28;20055;-76
2022/04/13 11:12:45;;;;;;;30.77;23.38;;;;;;;15.47;77.91;101657.56;5109663;28;20055;-75